Rechercher aéroport 
image banner adimage banner adimage banner ad
image banner ad

87CL - City National Plaza

Situé à Los Angeles, United States

ICAO - 87CL, IATA -

Données fournies par Airmate  

Information générale

Coordonnées: N34°3'5" W118°15'25"
Élévation : 980 feet MSL.
Variation magnétique : 14° East
Voir autres Aéroports à California

Données opérationnelles

Special qualification required
Heure actuelle UTC:
Heure actuelle locale:
METAR: KHHR 251053Z AUTO 25004KT 10SM OVC014 19/16 A2996 RMK AO2 SLP145 T01940156
Voir NOTAMs / SUP AIP / TFR affectant cet aéroport [VIEW]
Fréquences de communication: [VIEW]

Pistes:

Coordonnées de l'aéroport

Adresse: Los Angeles United States

Vue satellite de 87CL